Time;durP1;ratioP1;P1;durP2;ratioP2;P2;SDS_P1;SDS_P2;PMS_P1;PMS_P2;Temp;Humidity;BMP_temperature;BMP_pressure;BME280_temperature;BME280_humidity;BME280_pressure;Samples;Min_cycle;Max_cycle;Signal;HPM_P1;HPM_P2
2022/10/22 00:01:19;;;;;;;11.90;8.48;;;;;;;;;;5051530;28;20379;-66
2022/10/22 00:03:46;;;;;;;12.60;8.07;;;;;;;;;;5042343;28;20047;-66
2022/10/22 00:06:12;;;;;;;16.55;8.60;;;;;;;;;;5047942;28;20041;-66
2022/10/22 00:08:38;;;;;;;12.57;8.93;;;;;;;;;;5049730;28;20040;-66
2022/10/22 00:11:08;;;;;;;15.82;8.85;;;;;;;;;;5034018;28;20055;-66
2022/10/22 00:13:34;;;;;;;15.90;8.37;;;;;;;;;;5051289;28;20076;-66
2022/10/22 00:16:00;;;;;;;14.98;8.48;;;;;;;;;;5050788;28;20072;-66
2022/10/22 00:18:26;;;;;;;12.18;8.18;;;;;;;;;;5037699;28;20481;-66
2022/10/22 00:20:52;;;;;;;12.00;8.18;;;;;;;;;;5049102;28;20087;-66
2022/10/22 00:23:18;;;;;;;11.88;8.52;;;;;;;;;;5049896;28;20503;-66
2022/10/22 00:25:44;;;;;;;12.07;8.32;;;;;;;;;;5051505;28;20048;-66
2022/10/22 00:28:10;;;;;;;14.43;8.65;;;;;;;;;;5049190;28;20040;-66
2022/10/22 00:30:36;;;;;;;15.35;8.75;;;;;;;;;;5050246;28;20037;-65
2022/10/22 00:33:02;;;;;;;11.68;7.93;;;;;;;;;;5049409;28;20128;-66
2022/10/22 00:35:28;;;;;;;16.20;8.57;;;;;;;;;;5043182;28;20044;-66
2022/10/22 00:37:54;;;;;;;12.43;8.40;;;;;;;;;;5050739;28;20475;-66
2022/10/22 00:40:20;;;;;;;17.50;9.02;;;;;;;;;;5051017;28;20037;-66
2022/10/22 00:42:46;;;;;;;9.93;7.85;;;;;;;;;;5051162;28;20045;-66
2022/10/22 00:45:18;;;;;;;11.57;8.63;;;;;;;;;;5041740;28;20045;-66
2022/10/22 00:47:44;;;;;;;17.67;8.45;;;;;;;;;;5049600;28;20057;-66
2022/10/22 00:50:15;;;;;;;12.63;7.88;;;;;;;;;;5048826;28;20041;-66
2022/10/22 00:52:41;;;;;;;12.50;7.72;;;;;;;;;;5051221;28;20033;-66
2022/10/22 00:55:08;;;;;;;13.65;8.40;;;;;;;;;;5037378;28;20045;-66
2022/10/22 00:57:34;;;;;;;12.43;7.60;;;;;;;;;;5050717;28;20087;-66
2022/10/22 01:00:00;;;;;;;13.55;8.18;;;;;;;;;;5047035;28;20048;-66
2022/10/22 01:02:26;;;;;;;11.70;8.73;;;;;;;;;;5050308;28;20044;-66
2022/10/22 01:04:52;;;;;;;11.65;7.55;;;;;;;;;;5039897;28;20033;-66
2022/10/22 01:07:20;;;;;;;10.25;7.40;;;;;;;;;;5044919;28;20521;-66
2022/10/22 01:09:46;;;;;;;13.40;8.05;;;;;;;;;;5053356;28;20041;-66
2022/10/22 01:12:12;;;;;;;12.05;7.88;;;;;;;;;;5054046;28;20041;-66
2022/10/22 01:14:56;;;;;;;14.00;8.05;;;;;;;;;;5046899;28;20064;-66
2022/10/22 01:17:24;;;;;;;11.95;7.88;;;;;;;;;;5048249;28;20075;-66
2022/10/22 01:20:00;;;;;;;11.50;8.40;;;;;;;;;;5043125;28;20044;-65
2022/10/22 01:22:33;;;;;;;17.45;8.02;;;;;;;;;;5054175;28;20106;-66
2022/10/22 01:25:08;;;;;;;11.45;7.75;;;;;;;;;;5048677;28;20032;-66
2022/10/22 01:27:41;;;;;;;11.07;8.00;;;;;;;;;;5053600;28;20044;-66
2022/10/22 01:30:09;;;;;;;11.80;7.43;;;;;;;;;;5053227;28;20052;-66
2022/10/22 01:32:39;;;;;;;13.52;7.47;;;;;;;;;;5054768;28;20127;-66
2022/10/22 01:35:10;;;;;;;12.27;7.70;;;;;;;;;;5049537;28;20052;-66
2022/10/22 01:37:38;;;;;;;13.60;7.38;;;;;;;;;;5045895;28;20029;-66
2022/10/22 01:40:05;;;;;;;10.20;7.30;;;;;;;;;;5053013;28;20124;-66
2022/10/22 01:42:31;;;;;;;12.95;7.38;;;;;;;;;;5053008;28;20044;-66
2022/10/22 01:44:57;;;;;;;12.82;7.55;;;;;;;;;;5047738;28;20376;-66
2022/10/22 01:47:31;;;;;;;8.40;6.57;;;;;;;;;;5053649;28;20041;-66
2022/10/22 01:50:24;;;;;;;11.57;7.18;;;;;;;;;;5049989;28;20052;-67
2022/10/22 01:52:50;;;;;;;10.73;7.35;;;;;;;;;;5036328;28;20049;-66
2022/10/22 01:55:19;;;;;;;10.77;7.80;;;;;;;;;;5053077;28;20087;-66
2022/10/22 01:58:04;;;;;;;14.20;7.78;;;;;;;;;;5053088;28;20087;-66
2022/10/22 02:00:30;;;;;;;10.55;7.20;;;;;;;;;;5050921;28;20207;-66
2022/10/22 02:02:59;;;;;;;11.38;7.15;;;;;;;;;;5043903;28;20041;-66
2022/10/22 02:05:31;;;;;;;12.77;6.72;;;;;;;;;;5045169;28;20399;-66
2022/10/22 02:08:02;;;;;;;11.18;6.60;;;;;;;;;;5051914;28;20495;-66
2022/10/22 02:10:30;;;;;;;13.85;7.20;;;;;;;;;;5044830;28;20041;-66
2022/10/22 02:12:56;;;;;;;10.88;6.95;;;;;;;;;;5051929;28;20037;-66
2022/10/22 02:15:25;;;;;;;10.25;6.60;;;;;;;;;;5039702;28;20116;-66
2022/10/22 02:17:52;;;;;;;12.07;6.82;;;;;;;;;;5052854;28;20036;-66
2022/10/22 02:20:20;;;;;;;10.50;6.50;;;;;;;;;;5051063;28;20060;-66
2022/10/22 02:22:46;;;;;;;11.43;7.22;;;;;;;;;;5053382;28;20095;-66
2022/10/22 02:25:13;;;;;;;10.75;6.97;;;;;;;;;;5047936;28;20036;-66
2022/10/22 02:27:48;;;;;;;15.07;7.30;;;;;;;;;;5053113;28;20119;-65
2022/10/22 02:30:16;;;;;;;13.00;7.50;;;;;;;;;;5050909;28;20490;-66
2022/10/22 02:33:00;;;;;;;12.63;7.35;;;;;;;;;;5053114;28;20041;-66
2022/10/22 02:35:27;;;;;;;10.70;7.43;;;;;;;;;;5043753;28;20041;-66
2022/10/22 02:37:55;;;;;;;13.88;6.85;;;;;;;;;;5051558;28;20043;-66
2022/10/22 02:40:21;;;;;;;13.57;7.40;;;;;;;;;;5043756;28;20124;-66
2022/10/22 02:42:48;;;;;;;13.25;7.78;;;;;;;;;;5041482;28;20052;-65
2022/10/22 02:45:15;;;;;;;14.65;8.10;;;;;;;;;;5043493;28;20495;-66
2022/10/22 02:47:41;;;;;;;13.40;8.10;;;;;;;;;;5042776;28;20048;-65
2022/10/22 02:50:07;;;;;;;12.32;8.25;;;;;;;;;;5050162;28;20099;-65
2022/10/22 02:52:33;;;;;;;12.18;7.40;;;;;;;;;;5052571;28;20079;-65
2022/10/22 02:54:59;;;;;;;11.98;7.90;;;;;;;;;;5031448;28;20045;-65
2022/10/22 02:57:25;;;;;;;9.02;6.40;;;;;;;;;;5034256;28;20107;-65
2022/10/22 02:59:51;;;;;;;10.40;6.45;;;;;;;;;;5049478;28;20035;-65
2022/10/22 03:02:17;;;;;;;10.35;6.32;;;;;;;;;;5045962;28;20120;-66
2022/10/22 03:04:43;;;;;;;13.65;8.27;;;;;;;;;;5041533;28;20076;-65
2022/10/22 03:07:09;;;;;;;9.05;6.50;;;;;;;;;;5045512;28;20041;-65
2022/10/22 03:09:35;;;;;;;12.30;7.28;;;;;;;;;;5050093;28;20376;-65
2022/10/22 03:12:01;;;;;;;9.52;6.75;;;;;;;;;;5051419;28;20037;-65
2022/10/22 03:14:27;;;;;;;10.63;6.68;;;;;;;;;;5049849;28;20462;-65
2022/10/22 03:16:53;;;;;;;10.50;6.60;;;;;;;;;;5042768;28;20090;-65
2022/10/22 03:19:19;;;;;;;8.85;6.80;;;;;;;;;;5044999;28;20395;-65
2022/10/22 03:21:48;;;;;;;8.55;6.65;;;;;;;;;;5045731;28;20044;-65
2022/10/22 03:24:17;;;;;;;10.70;7.05;;;;;;;;;;5044957;28;20524;-65
2022/10/22 03:26:45;;;;;;;9.65;6.32;;;;;;;;;;5048956;28;20037;-66
2022/10/22 03:29:12;;;;;;;8.80;6.35;;;;;;;;;;5051212;28;20174;-65
2022/10/22 03:31:38;;;;;;;7.50;6.40;;;;;;;;;;5047524;28;20051;-65
2022/10/22 03:34:04;;;;;;;11.07;7.70;;;;;;;;;;5047742;28;20088;-65
2022/10/22 03:36:30;;;;;;;8.63;5.53;;;;;;;;;;5051360;28;20061;-65
2022/10/22 03:38:56;;;;;;;7.72;5.75;;;;;;;;;;5051888;28;20394;-65
2022/10/22 03:41:22;;;;;;;10.25;6.40;;;;;;;;;;5042812;28;20124;-66
2022/10/22 03:43:51;;;;;;;8.13;5.63;;;;;;;;;;5051402;28;20053;-65
2022/10/22 03:46:17;;;;;;;9.73;6.75;;;;;;;;;;5049819;28;20088;-66
2022/10/22 03:48:43;;;;;;;9.82;7.10;;;;;;;;;;5044254;28;20037;-65
2022/10/22 03:51:09;;;;;;;11.63;7.57;;;;;;;;;;5046552;28;20124;-65
2022/10/22 03:53:35;;;;;;;14.10;8.43;;;;;;;;;;5050749;28;20029;-66
2022/10/22 03:56:01;;;;;;;13.82;8.77;;;;;;;;;;5052129;28;20033;-65
2022/10/22 03:58:28;;;;;;;9.57;7.47;;;;;;;;;;5050257;28;20044;-65
2022/10/22 04:00:53;;;;;;;11.02;8.00;;;;;;;;;;5040258;28;20037;-65
2022/10/22 04:03:19;;;;;;;12.43;8.40;;;;;;;;;;5038473;28;20044;-65
2022/10/22 04:05:45;;;;;;;13.27;8.93;;;;;;;;;;5036818;28;20491;-65
2022/10/22 04:08:11;;;;;;;14.52;9.25;;;;;;;;;;5033200;28;20041;-65
2022/10/22 04:10:37;;;;;;;33.88;7.78;;;;;;;;;;5047026;28;20083;-67
2022/10/22 04:13:03;;;;;;;11.05;8.38;;;;;;;;;;5045448;28;20406;-65
2022/10/22 04:15:31;;;;;;;11.98;7.35;;;;;;;;;;5047401;28;20032;-66
2022/10/22 04:17:57;;;;;;;15.05;9.63;;;;;;;;;;5047170;28;20569;-65
2022/10/22 04:20:23;;;;;;;12.30;8.60;;;;;;;;;;5047629;28;20073;-65
2022/10/22 04:22:49;;;;;;;13.15;8.48;;;;;;;;;;5049490;28;20073;-65
2022/10/22 04:25:15;;;;;;;11.27;8.13;;;;;;;;;;5046900;28;20079;-65
2022/10/22 04:27:41;;;;;;;9.85;7.15;;;;;;;;;;5046945;28;20057;-65
2022/10/22 04:30:07;;;;;;;11.10;7.60;;;;;;;;;;5045375;28;20060;-65
2022/10/22 04:32:33;;;;;;;12.32;7.85;;;;;;;;;;5042920;28;20041;-65
2022/10/22 04:34:59;;;;;;;12.55;7.38;;;;;;;;;;5050978;28;20041;-65
2022/10/22 04:37:25;;;;;;;11.60;7.78;;;;;;;;;;5048722;28;20368;-65
2022/10/22 04:39:51;;;;;;;11.40;7.82;;;;;;;;;;5043693;28;20047;-65
2022/10/22 04:42:17;;;;;;;10.35;7.68;;;;;;;;;;5055188;28;20085;-65
2022/10/22 04:44:43;;;;;;;13.07;8.45;;;;;;;;;;5053784;28;20548;-65
2022/10/22 04:47:09;;;;;;;10.82;7.28;;;;;;;;;;5053021;28;20126;-66
2022/10/22 04:49:35;;;;;;;13.27;7.18;;;;;;;;;;5051854;28;20170;-65
2022/10/22 04:52:01;;;;;;;12.73;8.52;;;;;;;;;;5049713;28;20040;-65
2022/10/22 04:54:27;;;;;;;13.52;8.32;;;;;;;;;;5051001;28;20044;-65
2022/10/22 04:56:53;;;;;;;12.27;8.48;;;;;;;;;;5054410;28;20041;-65
2022/10/22 04:59:19;;;;;;;8.23;6.35;;;;;;;;;;5053449;28;20122;-65
2022/10/22 05:01:45;;;;;;;15.15;9.20;;;;;;;;;;5054629;28;20106;-65
2022/10/22 05:04:13;;;;;;;15.32;8.57;;;;;;;;;;5052363;28;20041;-65
2022/10/22 05:06:39;;;;;;;12.10;8.60;;;;;;;;;;5054521;28;20090;-65
2022/10/22 05:09:06;;;;;;;11.88;8.13;;;;;;;;;;5045027;28;20041;-65
2022/10/22 05:11:34;;;;;;;15.70;8.57;;;;;;;;;;5046106;28;20124;-65
2022/10/22 05:14:01;;;;;;;14.63;8.38;;;;;;;;;;5054392;28;20490;-65
2022/10/22 05:16:28;;;;;;;15.88;8.15;;;;;;;;;;5054749;28;20041;-65
2022/10/22 05:18:54;;;;;;;12.95;8.90;;;;;;;;;;5052315;28;20119;-66
2022/10/22 05:21:20;;;;;;;12.68;8.55;;;;;;;;;;5053862;28;20041;-65
2022/10/22 05:23:47;;;;;;;14.68;9.00;;;;;;;;;;5049152;28;20483;-65
2022/10/22 05:26:14;;;;;;;14.90;8.82;;;;;;;;;;5051689;28;20478;-65
2022/10/22 05:28:40;;;;;;;14.52;9.30;;;;;;;;;;5050185;28;20037;-65
2022/10/22 05:31:07;;;;;;;13.63;8.45;;;;;;;;;;5054209;28;20083;-65
2022/10/22 05:33:34;;;;;;;15.13;8.95;;;;;;;;;;5034366;28;20041;-65
2022/10/22 05:36:00;;;;;;;16.13;9.73;;;;;;;;;;5044880;28;20525;-65
2022/10/22 05:38:27;;;;;;;20.50;9.82;;;;;;;;;;5050545;28;20109;-66
2022/10/22 05:41:03;;;;;;;15.50;9.10;;;;;;;;;;5047297;28;20041;-65
2022/10/22 05:43:29;;;;;;;16.77;9.27;;;;;;;;;;5051296;28;20037;-65
2022/10/22 05:45:55;;;;;;;14.93;9.13;;;;;;;;;;5053548;28;20036;-65
2022/10/22 05:48:21;;;;;;;19.13;10.13;;;;;;;;;;5052980;28;20043;-65
2022/10/22 05:50:49;;;;;;;20.92;10.68;;;;;;;;;;5052488;28;20506;-65
2022/10/22 05:53:16;;;;;;;16.65;9.90;;;;;;;;;;5052779;28;20446;-65
2022/10/22 05:55:42;;;;;;;21.30;10.90;;;;;;;;;;5046958;28;20043;-65
2022/10/22 05:58:09;;;;;;;18.40;10.32;;;;;;;;;;5052678;28;20036;-66
2022/10/22 06:00:35;;;;;;;18.75;10.45;;;;;;;;;;5053740;28;20029;-65
2022/10/22 06:03:01;;;;;;;17.35;10.30;;;;;;;;;;5052273;28;20079;-65
2022/10/22 06:05:27;;;;;;;18.17;10.32;;;;;;;;;;5050297;28;20045;-65
2022/10/22 06:07:53;;;;;;;13.20;9.07;;;;;;;;;;5049008;28;20044;-65
2022/10/22 06:10:20;;;;;;;23.85;10.48;;;;;;;;;;5049822;28;20483;-65
2022/10/22 06:12:46;;;;;;;15.10;9.50;;;;;;;;;;5053082;28;20485;-65
2022/10/22 06:15:14;;;;;;;22.25;10.30;;;;;;;;;;5049330;28;20048;-65
2022/10/22 06:17:40;;;;;;;24.38;10.98;;;;;;;;;;5044285;28;20041;-65
2022/10/22 06:20:06;;;;;;;17.80;10.45;;;;;;;;;;5044786;28;20369;-65
2022/10/22 06:22:32;;;;;;;22.92;10.63;;;;;;;;;;5033158;28;20072;-65
2022/10/22 06:24:58;;;;;;;19.15;9.95;;;;;;;;;;5038920;28;20102;-65
2022/10/22 06:27:24;;;;;;;21.40;10.63;;;;;;;;;;5045046;28;20048;-65
2022/10/22 06:29:50;;;;;;;20.70;10.60;;;;;;;;;;5039113;28;20664;-65
2022/10/22 06:32:16;;;;;;;18.27;10.25;;;;;;;;;;5034927;28;20073;-65
2022/10/22 06:34:42;;;;;;;18.40;9.82;;;;;;;;;;5048406;28;20482;-65
2022/10/22 06:37:09;;;;;;;15.50;10.07;;;;;;;;;;5051008;28;20115;-65
2022/10/22 06:39:35;;;;;;;19.90;9.80;;;;;;;;;;5047729;28;20123;-65
2022/10/22 06:42:01;;;;;;;15.30;9.55;;;;;;;;;;5052402;28;20033;-65
2022/10/22 06:44:27;;;;;;;16.30;9.82;;;;;;;;;;5045485;28;20079;-66
2022/10/22 06:46:53;;;;;;;19.65;10.05;;;;;;;;;;5028892;28;20072;-65
2022/10/22 06:49:20;;;;;;;12.93;8.65;;;;;;;;;;5036928;28;20110;-65
2022/10/22 06:51:49;;;;;;;18.25;10.00;;;;;;;;;;5045207;28;20037;-65
2022/10/22 06:54:15;;;;;;;16.88;9.50;;;;;;;;;;5049936;28;20621;-65
2022/10/22 06:56:41;;;;;;;19.88;9.85;;;;;;;;;;5051560;28;20507;-65
2022/10/22 06:59:07;;;;;;;15.90;9.30;;;;;;;;;;5047940;28;20037;-65
2022/10/22 07:01:34;;;;;;;16.73;9.65;;;;;;;;;;5051081;28;20477;-65
2022/10/22 07:04:00;;;;;;;18.35;9.95;;;;;;;;;;5049197;28;20044;-66
2022/10/22 07:06:26;;;;;;;17.30;9.27;;;;;;;;;;5051199;28;20045;-65
2022/10/22 07:08:53;;;;;;;16.85;8.85;;;;;;;;;;5051060;28;20446;-65
2022/10/22 07:11:21;;;;;;;15.68;8.98;;;;;;;;;;5049548;28;20053;-65
2022/10/22 07:13:47;;;;;;;18.15;9.18;;;;;;;;;;5043108;28;20041;-65
2022/10/22 07:16:13;;;;;;;15.70;8.43;;;;;;;;;;5048333;28;20037;-66
2022/10/22 07:18:40;;;;;;;16.63;9.82;;;;;;;;;;5051639;28;20509;-65
2022/10/22 07:21:06;;;;;;;14.88;8.43;;;;;;;;;;5046294;28;20079;-65
2022/10/22 07:23:33;;;;;;;20.17;9.07;;;;;;;;;;5050819;28;20037;-65
2022/10/22 07:26:01;;;;;;;17.58;8.57;;;;;;;;;;5050970;28;20154;-66
2022/10/22 07:28:27;;;;;;;17.73;9.07;;;;;;;;;;5052056;28;20085;-65
2022/10/22 07:30:53;;;;;;;19.15;8.98;;;;;;;;;;5041192;28;20078;-65
2022/10/22 07:33:19;;;;;;;19.00;8.70;;;;;;;;;;5033068;28;20132;-65
2022/10/22 07:35:45;;;;;;;12.15;8.10;;;;;;;;;;5045654;28;20040;-65
2022/10/22 07:38:11;;;;;;;15.82;8.05;;;;;;;;;;5047217;28;20037;-66
2022/10/22 07:40:37;;;;;;;17.52;8.10;;;;;;;;;;5051989;28;20036;-66
2022/10/22 07:43:04;;;;;;;16.30;8.93;;;;;;;;;;5040197;28;20102;-65
2022/10/22 07:45:30;;;;;;;16.40;8.63;;;;;;;;;;5042524;28;20048;-65
2022/10/22 07:47:56;;;;;;;16.95;8.00;;;;;;;;;;5051188;28;20078;-65
2022/10/22 07:50:22;;;;;;;12.70;8.20;;;;;;;;;;5051558;28;20398;-65
2022/10/22 07:52:48;;;;;;;13.15;7.93;;;;;;;;;;5051248;28;20052;-65
2022/10/22 07:55:14;;;;;;;12.15;8.27;;;;;;;;;;5049917;28;20052;-65
2022/10/22 07:57:40;;;;;;;13.43;7.43;;;;;;;;;;5042151;28;20037;-66
2022/10/22 08:00:07;;;;;;;14.98;7.75;;;;;;;;;;5048901;28;20036;-66
2022/10/22 08:02:33;;;;;;;15.00;7.65;;;;;;;;;;5040272;28;20033;-66
2022/10/22 08:04:59;;;;;;;15.18;7.60;;;;;;;;;;5051428;28;20048;-65
2022/10/22 08:07:25;;;;;;;19.88;8.65;;;;;;;;;;5046178;28;20123;-66
2022/10/22 08:09:51;;;;;;;15.60;7.68;;;;;;;;;;5050443;28;20106;-66
2022/10/22 08:12:17;;;;;;;13.30;7.60;;;;;;;;;;5038369;28;20041;-66
2022/10/22 08:14:43;;;;;;;14.50;7.85;;;;;;;;;;5039732;28;20077;-65
2022/10/22 08:17:09;;;;;;;12.15;7.53;;;;;;;;;;5050706;28;20126;-66
2022/10/22 08:19:35;;;;;;;16.52;8.18;;;;;;;;;;5046247;28;20400;-65
2022/10/22 08:22:02;;;;;;;16.15;7.75;;;;;;;;;;5051631;28;20037;-65
2022/10/22 08:24:28;;;;;;;15.13;8.15;;;;;;;;;;5049138;28;20059;-65
2022/10/22 08:26:54;;;;;;;11.35;7.15;;;;;;;;;;5047630;28;20119;-65
2022/10/22 08:29:22;;;;;;;14.68;7.72;;;;;;;;;;5047318;28;20121;-65
2022/10/22 08:31:48;;;;;;;13.68;7.70;;;;;;;;;;5041977;28;20048;-65
2022/10/22 08:34:14;;;;;;;12.15;7.30;;;;;;;;;;5049150;28;20041;-65
2022/10/22 08:36:40;;;;;;;13.57;7.32;;;;;;;;;;5051390;28;20039;-65
2022/10/22 08:39:06;;;;;;;12.35;7.38;;;;;;;;;;5041656;28;20044;-66
2022/10/22 08:41:35;;;;;;;14.52;7.53;;;;;;;;;;5040871;28;20029;-66
2022/10/22 08:44:01;;;;;;;15.30;7.72;;;;;;;;;;5039895;28;20037;-65
2022/10/22 08:46:46;;;;;;;19.48;7.10;;;;;;;;;;5044559;28;20051;-65
2022/10/22 08:49:16;;;;;;;16.83;6.93;;;;;;;;;;5050532;28;20068;-65
2022/10/22 08:51:42;;;;;;;11.52;6.55;;;;;;;;;;5046735;28;20040;-65
2022/10/22 08:54:14;;;;;;;15.18;6.68;;;;;;;;;;5046050;28;20044;-65
2022/10/22 08:56:42;;;;;;;14.18;6.18;;;;;;;;;;5050696;28;20057;-66
2022/10/22 08:59:08;;;;;;;13.88;6.10;;;;;;;;;;5046500;28;20131;-66
2022/10/22 09:01:34;;;;;;;13.63;6.28;;;;;;;;;;5043854;28;20501;-66
2022/10/22 09:04:12;;;;;;;13.40;6.25;;;;;;;;;;5046727;28;20037;-66
2022/10/22 09:06:39;;;;;;;13.70;5.30;;;;;;;;;;5048887;28;20090;-66
2022/10/22 09:09:10;;;;;;;11.10;5.70;;;;;;;;;;5040571;28;20068;-66
2022/10/22 09:11:36;;;;;;;;;;;;;;;;;;5043832;28;20037;-66
2022/10/22 09:14:03;;;;;;;12.52;4.72;;;;;;;;;;5043850;28;19974;-66
2022/10/22 09:16:41;;;;;;;16.48;5.47;;;;;;;;;;5049180;28;20029;-66
2022/10/22 09:19:10;;;;;;;11.30;5.18;;;;;;;;;;5049463;28;20037;-66
2022/10/22 09:22:06;;;;;;;13.00;5.05;;;;;;;;;;5045234;28;20053;-66
2022/10/22 09:24:38;;;;;;;13.45;5.53;;;;;;;;;;5043980;28;20132;-66
2022/10/22 09:27:11;;;;;;;11.10;5.03;;;;;;;;;;5052485;28;20041;-66
2022/10/22 09:29:38;;;;;;;12.73;4.82;;;;;;;;;;5047461;28;20045;-65
2022/10/22 09:32:04;;;;;;;9.05;4.60;;;;;;;;;;5047291;28;20045;-65
2022/10/22 09:34:30;;;;;;;12.10;4.85;;;;;;;;;;5049515;28;20091;-65
2022/10/22 09:36:57;;;;;;;15.70;4.88;;;;;;;;;;5046189;28;20055;-65
2022/10/22 09:39:27;;;;;;;9.82;5.07;;;;;;;;;;5045148;28;20581;-65
2022/10/22 09:41:53;;;;;;;10.25;4.55;;;;;;;;;;5052380;28;20044;-65
2022/10/22 09:44:20;;;;;;;15.27;4.72;;;;;;;;;;5048033;28;20402;-65
2022/10/22 09:46:46;;;;;;;13.20;4.65;;;;;;;;;;5038611;28;20503;-65
2022/10/22 09:49:14;;;;;;;11.38;4.18;;;;;;;;;;5050451;28;20673;-65
2022/10/22 09:51:41;;;;;;;13.48;4.82;;;;;;;;;;5050422;28;20045;-65
2022/10/22 09:54:16;;;;;;;9.75;4.38;;;;;;;;;;5053941;28;20044;-64
2022/10/22 09:56:46;;;;;;;13.73;4.13;;;;;;;;;;5046259;28;20060;-65
2022/10/22 09:59:16;;;;;;;11.23;4.03;;;;;;;;;;5048287;28;20045;-65
2022/10/22 10:01:43;;;;;;;14.18;3.83;;;;;;;;;;5052890;28;20032;-65
2022/10/22 10:04:14;;;;;;;8.77;3.92;;;;;;;;;;5048409;28;20052;-65
2022/10/22 10:06:41;;;;;;;10.25;4.05;;;;;;;;;;5047838;28;20032;-65
2022/10/22 10:09:17;;;;;;;10.85;4.03;;;;;;;;;;5050565;28;20044;-65
2022/10/22 10:12:06;;;;;;;8.02;4.00;;;;;;;;;;5049257;28;20040;-65
2022/10/22 10:14:52;;;;;;;12.32;3.80;;;;;;;;;;5041547;28;20130;-65
2022/10/22 10:17:30;;;;;;;12.23;4.03;;;;;;;;;;5050401;28;20049;-65
2022/10/22 10:19:56;;;;;;;12.90;4.95;;;;;;;;;;5045066;28;20033;-66
2022/10/22 10:22:41;;;;;;;12.05;4.20;;;;;;;;;;5048540;28;20399;-65
2022/10/22 10:25:10;;;;;;;15.23;4.57;;;;;;;;;;5048747;28;20416;-65
2022/10/22 10:27:39;;;;;;;13.70;4.53;;;;;;;;;;5037574;28;20422;-65
2022/10/22 10:30:05;;;;;;;13.73;5.20;;;;;;;;;;5052295;28;20048;-65
2022/10/22 10:32:39;;;;;;;10.60;5.00;;;;;;;;;;5040990;28;20037;-65
2022/10/22 10:35:20;;;;;;;13.02;4.47;;;;;;;;;;5050714;28;20116;-65
2022/10/22 10:37:49;;;;;;;14.55;4.80;;;;;;;;;;5051559;28;20072;-66
2022/10/22 10:40:34;;;;;;;12.93;4.40;;;;;;;;;;5050836;28;20552;-66
2022/10/22 10:43:02;;;;;;;7.75;4.10;;;;;;;;;;5045125;28;20037;-66
2022/10/22 10:45:35;;;;;;;12.55;4.53;;;;;;;;;;5050445;28;20045;-66
2022/10/22 10:48:13;;;;;;;11.88;5.05;;;;;;;;;;5045092;28;20052;-66
2022/10/22 10:50:48;;;;;;;9.75;4.53;;;;;;;;;;5048761;28;20497;-65
2022/10/22 10:53:17;;;;;;;12.68;5.00;;;;;;;;;;5046821;28;20049;-66
2022/10/22 10:55:57;;;;;;;8.82;4.50;;;;;;;;;;5050440;28;20044;-65
2022/10/22 10:58:33;;;;;;;10.90;5.15;;;;;;;;;;5044761;28;20041;-66
2022/10/22 11:01:12;;;;;;;11.68;4.63;;;;;;;;;;5048472;28;20036;-66
2022/10/22 11:03:59;;;;;;;8.70;4.63;;;;;;;;;;5038168;28;20037;-65
2022/10/22 11:06:26;;;;;;;9.82;4.20;;;;;;;;;;5046947;28;20061;-66
2022/10/22 11:08:58;;;;;;;15.02;5.05;;;;;;;;;;5049605;28;20462;-65
2022/10/22 11:11:27;;;;;;;12.65;4.70;;;;;;;;;;5043483;28;20072;-65
2022/10/22 11:13:57;;;;;;;10.60;4.93;;;;;;;;;;5052445;28;20095;-66
2022/10/22 11:16:26;;;;;;;11.70;5.28;;;;;;;;;;5051949;28;20033;-65
2022/10/22 11:18:56;;;;;;;9.18;5.47;;;;;;;;;;5048052;28;20065;-65
2022/10/22 11:21:26;;;;;;;11.45;4.70;;;;;;;;;;5044459;28;20521;-65
2022/10/22 11:23:58;;;;;;;10.90;5.25;;;;;;;;;;5048122;28;20052;-65
2022/10/22 11:26:24;;;;;;;13.70;5.10;;;;;;;;;;5052309;28;20080;-65
2022/10/22 11:28:52;;;;;;;13.55;6.03;;;;;;;;;;5043416;28;20092;-65
2022/10/22 11:31:19;;;;;;;13.40;5.70;;;;;;;;;;5051539;28;20391;-64
2022/10/22 11:33:57;;;;;;;13.73;6.13;;;;;;;;;;5045668;28;20040;-65
2022/10/22 11:36:25;;;;;;;11.70;5.25;;;;;;;;;;5050122;28;20051;-65
2022/10/22 11:38:51;;;;;;;10.65;6.10;;;;;;;;;;5051826;28;20326;-65
2022/10/22 11:41:21;;;;;;;12.18;6.32;;;;;;;;;;5050498;28;20037;-65
2022/10/22 11:43:58;;;;;;;13.18;6.10;;;;;;;;;;5050276;28;20383;-65
2022/10/22 11:46:43;;;;;;;14.10;6.15;;;;;;;;;;5048714;28;20044;-65
2022/10/22 11:49:09;;;;;;;12.60;5.63;;;;;;;;;;5046535;28;20707;-65
2022/10/22 11:51:36;;;;;;;12.13;6.30;;;;;;;;;;5039503;28;20117;-65
2022/10/22 11:54:21;;;;;;;10.15;6.43;;;;;;;;;;5049485;28;20042;-65
2022/10/22 11:56:51;;;;;;;13.07;6.50;;;;;;;;;;5041315;28;20038;-65
2022/10/22 11:59:35;;;;;;;13.80;6.70;;;;;;;;;;5043291;28;20040;-65
2022/10/22 12:02:02;;;;;;;11.57;6.60;;;;;;;;;;5050838;28;20087;-65
2022/10/22 12:04:41;;;;;;;12.88;6.25;;;;;;;;;;5049069;28;20037;-65
2022/10/22 12:07:27;;;;;;;14.10;7.00;;;;;;;;;;5045736;28;20052;-65
2022/10/22 12:09:54;;;;;;;13.38;6.60;;;;;;;;;;5037491;28;20037;-65
2022/10/22 12:12:20;;;;;;;12.88;6.22;;;;;;;;;;5041865;28;20078;-65
2022/10/22 12:14:53;;;;;;;14.90;6.47;;;;;;;;;;5043770;28;20529;-65
2022/10/22 12:17:20;;;;;;;15.48;5.95;;;;;;;;;;5032662;28;20098;-65
2022/10/22 12:19:49;;;;;;;12.65;6.50;;;;;;;;;;5040218;28;20033;-65
2022/10/22 12:22:17;;;;;;;12.00;6.25;;;;;;;;;;5051150;28;20043;-65
2022/10/22 12:24:45;;;;;;;12.45;5.65;;;;;;;;;;5048369;28;20049;-65
2022/10/22 12:27:17;;;;;;;12.25;5.97;;;;;;;;;;5045989;28;20492;-65
2022/10/22 12:29:43;;;;;;;9.93;6.05;;;;;;;;;;5042957;28;20525;-65
2022/10/22 12:32:12;;;;;;;12.45;5.22;;;;;;;;;;5051146;28;20091;-65
2022/10/22 12:34:44;;;;;;;9.50;5.20;;;;;;;;;;5049229;28;20052;-65
2022/10/22 12:37:11;;;;;;;10.13;5.43;;;;;;;;;;5045364;28;20506;-65
2022/10/22 12:39:37;;;;;;;13.57;5.50;;;;;;;;;;5047127;28;20090;-65
2022/10/22 12:42:05;;;;;;;14.68;5.63;;;;;;;;;;5041744;28;20181;-64
2022/10/22 12:44:32;;;;;;;13.55;6.40;;;;;;;;;;5034978;28;20098;-65
2022/10/22 12:46:58;;;;;;;12.10;5.80;;;;;;;;;;5044598;28;20045;-65
2022/10/22 12:49:33;;;;;;;10.38;5.20;;;;;;;;;;5041720;28;20095;-64
2022/10/22 12:52:04;;;;;;;9.13;4.85;;;;;;;;;;5047496;28;20103;-65
2022/10/22 12:54:31;;;;;;;11.15;5.15;;;;;;;;;;5047120;28;20465;-65
2022/10/22 12:56:58;;;;;;;12.05;4.32;;;;;;;;;;5041452;28;20211;-66
2022/10/22 12:59:35;;;;;;;13.30;4.63;;;;;;;;;;5048024;28;20144;-65
2022/10/22 13:02:02;;;;;;;11.88;4.03;;;;;;;;;;5052871;28;20029;-65
2022/10/22 13:04:29;;;;;;;9.13;4.03;;;;;;;;;;5039858;28;20061;-66
2022/10/22 13:07:14;;;;;;;11.23;5.07;;;;;;;;;;5053407;28;20505;-65
2022/10/22 13:09:56;;;;;;;11.20;4.30;;;;;;;;;;5041949;28;20051;-65
2022/10/22 13:12:34;;;;;;;7.30;4.03;;;;;;;;;;5047543;28;20037;-65
2022/10/22 13:15:18;;;;;;;10.55;3.92;;;;;;;;;;5051282;28;20080;-65
2022/10/22 13:17:44;;;;;;;10.13;4.50;;;;;;;;;;5046232;28;20033;-65
2022/10/22 13:20:20;;;;;;;10.70;4.47;;;;;;;;;;5049741;28;20052;-65
2022/10/22 13:22:59;;;;;;;10.73;4.05;;;;;;;;;;5054736;28;20037;-65
2022/10/22 13:25:38;;;;;;;13.25;3.97;;;;;;;;;;5051452;28;20045;-65
2022/10/22 13:28:23;;;;;;;9.13;3.90;;;;;;;;;;5043743;28;20457;-65
2022/10/22 13:30:59;;;;;;;9.02;3.75;;;;;;;;;;5051132;28;20045;-65
2022/10/22 13:33:35;;;;;;;9.73;4.20;;;;;;;;;;5051487;28;20052;-65
2022/10/22 13:36:02;;;;;;;11.50;3.70;;;;;;;;;;5050226;28;20029;-65
2022/10/22 13:38:28;;;;;;;10.68;3.88;;;;;;;;;;5048632;28;20037;-65
2022/10/22 13:40:55;;;;;;;10.30;3.40;;;;;;;;;;5048935;28;20120;-64
2022/10/22 13:43:21;;;;;;;9.13;4.07;;;;;;;;;;5041030;28;20488;-65
2022/10/22 13:45:48;;;;;;;10.90;4.10;;;;;;;;;;5042387;28;20087;-65
2022/10/22 13:48:20;;;;;;;10.55;3.80;;;;;;;;;;5042124;28;20053;-64
2022/10/22 13:50:47;;;;;;;11.57;3.70;;;;;;;;;;5052103;28;20040;-66
2022/10/22 13:53:17;;;;;;;14.48;4.03;;;;;;;;;;5042371;28;20091;-65
2022/10/22 13:55:44;;;;;;;12.77;4.43;;;;;;;;;;5051042;28;20549;-65
2022/10/22 13:58:18;;;;;;;10.65;3.75;;;;;;;;;;5047632;28;20071;-65
2022/10/22 14:00:45;;;;;;;7.03;3.15;;;;;;;;;;5045547;28;20033;-65
2022/10/22 14:03:13;;;;;;;8.45;3.28;;;;;;;;;;5048426;28;20037;-65
2022/10/22 14:05:39;;;;;;;9.20;3.70;;;;;;;;;;5041038;28;20159;-65
2022/10/22 14:08:09;;;;;;;11.82;3.05;;;;;;;;;;5043016;28;20128;-65
2022/10/22 14:10:35;;;;;;;11.33;3.47;;;;;;;;;;5046954;28;20044;-65
2022/10/22 14:13:01;;;;;;;9.02;3.55;;;;;;;;;;5044875;28;20033;-64
2022/10/22 14:15:28;;;;;;;8.98;3.13;;;;;;;;;;5045518;28;20045;-64
2022/10/22 14:17:58;;;;;;;9.32;2.97;;;;;;;;;;5049782;28;20137;-65
2022/10/22 14:20:29;;;;;;;8.10;3.10;;;;;;;;;;5052851;28;20040;-65
2022/10/22 14:22:56;;;;;;;6.65;2.92;;;;;;;;;;5053387;28;20394;-64
2022/10/22 14:25:23;;;;;;;7.22;2.72;;;;;;;;;;5051245;28;20060;-64
2022/10/22 14:27:49;;;;;;;9.88;2.78;;;;;;;;;;5047406;28;20086;-64
2022/10/22 14:30:23;;;;;;;8.65;2.50;;;;;;;;;;5050979;28;20051;-66
2022/10/22 14:32:50;;;;;;;6.57;2.47;;;;;;;;;;5052303;28;20610;-65
2022/10/22 14:35:19;;;;;;;11.18;3.00;;;;;;;;;;5045517;28;20041;-64
2022/10/22 14:37:45;;;;;;;8.40;2.67;;;;;;;;;;5050910;28;20060;-65
2022/10/22 14:40:16;;;;;;;5.18;2.03;;;;;;;;;;5041873;28;20043;-65